<?xml version="1.0" encoding="UTF-8"?>
<gpx xmlns="http://www.topografix.com/GPX/1/1" xmlns:gpsies="http://www.gpsies.com/GPX/1/0" creator="GPSies http://www.gpsies.com - Tour 10) Zum fl&amp;#252;ssigen Gold der Insel" version="1.1" xmlns:xsi="http://www.w3.org/2001/XMLSchema-instance" xsi:schemaLocation="http://www.topografix.com/GPX/1/1 http://www.topografix.com/GPX/1/1/gpx.xsd http://www.gpsies.com/GPX/1/0 http://www.gpsies.com/gpsies.xsd">
  <metadata>
    <name>Tour 10) Zum flüssigen Gold der Insel</name>
    <desc>Siehe Buch: (Foto)Wanderungen auf Krk, bod-Verlag, ISBN-Nr.: 978-3-7386-0336-1</desc>
    <author>
      <name>krkwanderer</name>
      <link href="http://www.gpsies.com/mapUser.do?username=krkwanderer">
        <text>krkwanderer on GPSies.com</text>
        <type>GPSiesUserOnWeb</type>
      </link>
    </author>
    <link href="http://www.gpsies.com/map.do?fileId=zmfleqzrcjzzbddk">
      <text>Tour 10) Zum flüssigen Gold der Insel on GPSies.com</text>
      <type>trackOnWeb</type>
    </link>
    <time>2016-11-11T17:30:49Z</time>
    <extensions>
      <gpsies:property>round trip</gpsies:property>
      <gpsies:trackLengthMeter>9841.06285796748</gpsies:trackLengthMeter>
      <gpsies:totalAscentMeter>193.0</gpsies:totalAscentMeter>
      <gpsies:totalDescentMeter>197.0</gpsies:totalDescentMeter>
      <gpsies:minHeightMeter>25.0</gpsies:minHeightMeter>
      <gpsies:maxHeightMeter>148.0</gpsies:maxHeightMeter>
    </extensions>
  </metadata>
  <trk>
    <name>Tour 10) Zum flüssigen Gold der Insel on GPSies.com</name>
    <link href="http://www.gpsies.com/map.do?fileId=zmfleqzrcjzzbddk">
      <type>trackOnWeb</type>
    </link>
    <link href="http://www.gpsies.com/charts/zm/map/zmfleqzrcjzzbddk_map.png">
      <type>elevationChartUrlMap</type>
    </link>
    <link href="http://www.gpsies.com/charts/zm/mapThumb/zmfleqzrcjzzbddk_mapThumb.png">
      <type>elevationChartUrlMapThumb</type>
    </link>
    <link href="http://www.gpsies.com/charts/zm/tab/zmfleqzrcjzzbddk_tab.png">
      <type>elevationChartUrlTab</type>
    </link>
    <trkseg>
      <trkpt lat="45.02996830" lon="14.58055250">
        <ele>40.000000</ele>
        <time>2010-01-01T00:00:00Z</time>
      </trkpt>
      <trkpt lat="45.03037780" lon="14.58097100">
        <ele>46.000000</ele>
        <time>2010-01-01T00:00:12Z</time>
      </trkpt>
      <trkpt lat="45.03063560" lon="14.58117480">
        <ele>48.000000</ele>
        <time>2010-01-01T00:00:19Z</time>
      </trkpt>
      <trkpt lat="45.03143170" lon="14.58175420">
        <ele>55.000000</ele>
        <time>2010-01-01T00:00:42Z</time>
      </trkpt>
      <trkpt lat="45.03162880" lon="14.58186140">
        <ele>56.000000</ele>
        <time>2010-01-01T00:00:47Z</time>
      </trkpt>
      <trkpt lat="45.03187910" lon="14.58190440">
        <ele>58.000000</ele>
        <time>2010-01-01T00:00:53Z</time>
      </trkpt>
      <trkpt lat="45.03262210" lon="14.58190440">
        <ele>62.000000</ele>
        <time>2010-01-01T00:01:12Z</time>
      </trkpt>
      <trkpt lat="45.03308770" lon="14.58220480">
        <ele>64.000000</ele>
        <time>2010-01-01T00:01:24Z</time>
      </trkpt>
      <trkpt lat="45.03336660" lon="14.58226910">
        <ele>65.000000</ele>
        <time>2010-01-01T00:01:31Z</time>
      </trkpt>
      <trkpt lat="45.03340950" lon="14.58226910">
        <ele>66.000000</ele>
        <time>2010-01-01T00:01:33Z</time>
      </trkpt>
      <trkpt lat="45.03368850" lon="14.58229060">
        <ele>67.000000</ele>
        <time>2010-01-01T00:01:39Z</time>
      </trkpt>
      <trkpt lat="45.03480430" lon="14.58372830">
        <ele>66.000000</ele>
        <time>2010-01-01T00:02:17Z</time>
      </trkpt>
      <trkpt lat="45.03583430" lon="14.58473680">
        <ele>69.000000</ele>
        <time>2010-01-01T00:02:48Z</time>
      </trkpt>
      <trkpt lat="45.03647800" lon="14.58576670">
        <ele>67.000000</ele>
        <time>2010-01-01T00:03:12Z</time>
      </trkpt>
      <trkpt lat="45.03654240" lon="14.58621740">
        <ele>70.000000</ele>
        <time>2010-01-01T00:03:20Z</time>
      </trkpt>
      <trkpt lat="45.03714320" lon="14.58774080">
        <ele>82.000000</ele>
        <time>2010-01-01T00:03:51Z</time>
      </trkpt>
      <trkpt lat="45.03800150" lon="14.58879230">
        <ele>91.000000</ele>
        <time>2010-01-01T00:04:19Z</time>
      </trkpt>
      <trkpt lat="45.03862380" lon="14.58915710">
        <ele>98.000000</ele>
        <time>2010-01-01T00:04:36Z</time>
      </trkpt>
      <trkpt lat="45.03892420" lon="14.58958620">
        <ele>103.00000</ele>
        <time>2010-01-01T00:04:47Z</time>
      </trkpt>
      <trkpt lat="45.03958940" lon="14.59016560">
        <ele>112.00000</ele>
        <time>2010-01-01T00:05:06Z</time>
      </trkpt>
      <trkpt lat="45.04064080" lon="14.59074490">
        <ele>124.00000</ele>
        <time>2010-01-01T00:05:34Z</time>
      </trkpt>
      <trkpt lat="45.04100560" lon="14.59141010">
        <ele>127.00000</ele>
        <time>2010-01-01T00:05:49Z</time>
      </trkpt>
      <trkpt lat="45.04124160" lon="14.59216110">
        <ele>130.00000</ele>
        <time>2010-01-01T00:06:03Z</time>
      </trkpt>
      <trkpt lat="45.04152050" lon="14.59235420">
        <ele>133.00000</ele>
        <time>2010-01-01T00:06:11Z</time>
      </trkpt>
      <trkpt lat="45.04184240" lon="14.59241860">
        <ele>135.00000</ele>
        <time>2010-01-01T00:06:19Z</time>
      </trkpt>
      <trkpt lat="45.04282950" lon="14.59271900">
        <ele>142.00000</ele>
        <time>2010-01-01T00:06:44Z</time>
      </trkpt>
      <trkpt lat="45.04358050" lon="14.59344860">
        <ele>145.00000</ele>
        <time>2010-01-01T00:07:07Z</time>
      </trkpt>
      <trkpt lat="45.04398820" lon="14.59370610">
        <ele>147.00000</ele>
        <time>2010-01-01T00:07:18Z</time>
      </trkpt>
      <trkpt lat="45.04469630" lon="14.59362030">
        <ele>148.00000</ele>
        <time>2010-01-01T00:07:36Z</time>
      </trkpt>
      <trkpt lat="45.04521130" lon="14.59398500">
        <ele>147.00000</ele>
        <time>2010-01-01T00:07:50Z</time>
      </trkpt>
      <trkpt lat="45.04699580" lon="14.59436970">
        <ele>142.00000</ele>
        <time>2010-01-01T00:08:35Z</time>
      </trkpt>
      <trkpt lat="45.04770040" lon="14.59452150">
        <ele>137.00000</ele>
        <time>2010-01-01T00:08:53Z</time>
      </trkpt>
      <trkpt lat="45.04787200" lon="14.59441420">
        <ele>137.00000</ele>
        <time>2010-01-01T00:08:58Z</time>
      </trkpt>
      <trkpt lat="45.04819390" lon="14.59439270">
        <ele>135.00000</ele>
        <time>2010-01-01T00:09:06Z</time>
      </trkpt>
      <trkpt lat="45.04855870" lon="14.59447860">
        <ele>133.00000</ele>
        <time>2010-01-01T00:09:15Z</time>
      </trkpt>
      <trkpt lat="45.04877320" lon="14.59422110">
        <ele>134.00000</ele>
        <time>2010-01-01T00:09:22Z</time>
      </trkpt>
      <trkpt lat="45.04907360" lon="14.59402790">
        <ele>133.00000</ele>
        <time>2010-01-01T00:09:30Z</time>
      </trkpt>
      <trkpt lat="45.04961010" lon="14.59353440">
        <ele>134.00000</ele>
        <time>2010-01-01T00:09:46Z</time>
      </trkpt>
      <trkpt lat="45.05001780" lon="14.59314820">
        <ele>135.00000</ele>
        <time>2010-01-01T00:09:58Z</time>
      </trkpt>
      <trkpt lat="45.05051130" lon="14.59297650">
        <ele>134.00000</ele>
        <time>2010-01-01T00:10:11Z</time>
      </trkpt>
      <trkpt lat="45.05102630" lon="14.59269760">
        <ele>135.00000</ele>
        <time>2010-01-01T00:10:24Z</time>
      </trkpt>
      <trkpt lat="45.05134820" lon="14.59218260">
        <ele>136.00000</ele>
        <time>2010-01-01T00:10:36Z</time>
      </trkpt>
      <trkpt lat="45.05173440" lon="14.59194660">
        <ele>135.00000</ele>
        <time>2010-01-01T00:10:47Z</time>
      </trkpt>
      <trkpt lat="45.05173440" lon="14.59203240">
        <ele>135.00000</ele>
        <time>2010-01-01T00:10:48Z</time>
      </trkpt>
      <trkpt lat="45.05184170" lon="14.59261170">
        <ele>133.00000</ele>
        <time>2010-01-01T00:10:59Z</time>
      </trkpt>
      <trkpt lat="45.05192750" lon="14.59282630">
        <ele>131.00000</ele>
        <time>2010-01-01T00:11:03Z</time>
      </trkpt>
      <trkpt lat="45.05191280" lon="14.59295930">
        <ele>131.00000</ele>
        <time>2010-01-01T00:11:06Z</time>
      </trkpt>
      <trkpt lat="45.05201330" lon="14.59298190">
        <ele>131.00000</ele>
        <time>2010-01-01T00:11:08Z</time>
      </trkpt>
      <trkpt lat="45.05191280" lon="14.59295930">
        <ele>131.00000</ele>
        <time>2010-01-01T00:11:11Z</time>
      </trkpt>
      <trkpt lat="45.05190610" lon="14.59301940">
        <ele>130.00000</ele>
        <time>2010-01-01T00:11:12Z</time>
      </trkpt>
      <trkpt lat="45.05192750" lon="14.59329840">
        <ele>129.00000</ele>
        <time>2010-01-01T00:11:17Z</time>
      </trkpt>
      <trkpt lat="45.05197040" lon="14.59359880">
        <ele>128.00000</ele>
        <time>2010-01-01T00:11:22Z</time>
      </trkpt>
      <trkpt lat="45.05197040" lon="14.59377050">
        <ele>128.00000</ele>
        <time>2010-01-01T00:11:25Z</time>
      </trkpt>
      <trkpt lat="45.05194900" lon="14.59392070">
        <ele>128.00000</ele>
        <time>2010-01-01T00:11:28Z</time>
      </trkpt>
      <trkpt lat="45.05184170" lon="14.59443560">
        <ele>127.00000</ele>
        <time>2010-01-01T00:11:37Z</time>
      </trkpt>
      <trkpt lat="45.05179880" lon="14.59462880">
        <ele>126.00000</ele>
        <time>2010-01-01T00:11:41Z</time>
      </trkpt>
      <trkpt lat="45.05171290" lon="14.59490770">
        <ele>124.00000</ele>
        <time>2010-01-01T00:11:46Z</time>
      </trkpt>
      <trkpt lat="45.05158420" lon="14.59518670">
        <ele>124.00000</ele>
        <time>2010-01-01T00:11:52Z</time>
      </trkpt>
      <trkpt lat="45.05149840" lon="14.59544420">
        <ele>123.00000</ele>
        <time>2010-01-01T00:11:57Z</time>
      </trkpt>
      <trkpt lat="45.05141250" lon="14.59656000">
        <ele>120.00000</ele>
        <time>2010-01-01T00:12:17Z</time>
      </trkpt>
      <trkpt lat="45.05136960" lon="14.59673160">
        <ele>119.00000</ele>
        <time>2010-01-01T00:12:20Z</time>
      </trkpt>
      <trkpt lat="45.05126230" lon="14.59711790">
        <ele>118.00000</ele>
        <time>2010-01-01T00:12:27Z</time>
      </trkpt>
      <trkpt lat="45.05124090" lon="14.59724660">
        <ele>118.00000</ele>
        <time>2010-01-01T00:12:30Z</time>
      </trkpt>
      <trkpt lat="45.05126230" lon="14.59743970">
        <ele>117.00000</ele>
        <time>2010-01-01T00:12:33Z</time>
      </trkpt>
      <trkpt lat="45.05128380" lon="14.59784740">
        <ele>116.00000</ele>
        <time>2010-01-01T00:12:40Z</time>
      </trkpt>
      <trkpt lat="45.05126230" lon="14.59840530">
        <ele>115.00000</ele>
        <time>2010-01-01T00:12:50Z</time>
      </trkpt>
      <trkpt lat="45.05130520" lon="14.59877010">
        <ele>116.00000</ele>
        <time>2010-01-01T00:12:57Z</time>
      </trkpt>
      <trkpt lat="45.05130520" lon="14.59889880">
        <ele>116.00000</ele>
        <time>2010-01-01T00:12:59Z</time>
      </trkpt>
      <trkpt lat="45.05130520" lon="14.59894180">
        <ele>116.00000</ele>
        <time>2010-01-01T00:13:00Z</time>
      </trkpt>
      <trkpt lat="45.05121940" lon="14.59911340">
        <ele>116.00000</ele>
        <time>2010-01-01T00:13:03Z</time>
      </trkpt>
      <trkpt lat="45.05109070" lon="14.59952110">
        <ele>116.00000</ele>
        <time>2010-01-01T00:13:11Z</time>
      </trkpt>
      <trkpt lat="45.05106920" lon="14.59964990">
        <ele>116.00000</ele>
        <time>2010-01-01T00:13:13Z</time>
      </trkpt>
      <trkpt lat="45.05106920" lon="14.59995030">
        <ele>116.00000</ele>
        <time>2010-01-01T00:13:19Z</time>
      </trkpt>
      <trkpt lat="45.05111210" lon="14.60020780">
        <ele>116.00000</ele>
        <time>2010-01-01T00:13:23Z</time>
      </trkpt>
      <trkpt lat="45.05109070" lon="14.60033650">
        <ele>116.00000</ele>
        <time>2010-01-01T00:13:26Z</time>
      </trkpt>
      <trkpt lat="45.05104780" lon="14.60048670">
        <ele>115.00000</ele>
        <time>2010-01-01T00:13:29Z</time>
      </trkpt>
      <trkpt lat="45.05102630" lon="14.60055110">
        <ele>115.00000</ele>
        <time>2010-01-01T00:13:30Z</time>
      </trkpt>
      <trkpt lat="45.05089750" lon="14.60061550">
        <ele>115.00000</ele>
        <time>2010-01-01T00:13:33Z</time>
      </trkpt>
      <trkpt lat="45.05064010" lon="14.60080860">
        <ele>114.00000</ele>
        <time>2010-01-01T00:13:40Z</time>
      </trkpt>
      <trkpt lat="45.05089750" lon="14.60061550">
        <ele>115.00000</ele>
        <time>2010-01-01T00:13:48Z</time>
      </trkpt>
      <trkpt lat="45.05102630" lon="14.60055110">
        <ele>115.00000</ele>
        <time>2010-01-01T00:13:51Z</time>
      </trkpt>
      <trkpt lat="45.05104780" lon="14.60048670">
        <ele>115.00000</ele>
        <time>2010-01-01T00:13:52Z</time>
      </trkpt>
      <trkpt lat="45.05106920" lon="14.60061550">
        <ele>115.00000</ele>
        <time>2010-01-01T00:13:55Z</time>
      </trkpt>
      <trkpt lat="45.05113360" lon="14.60098020">
        <ele>114.00000</ele>
        <time>2010-01-01T00:14:01Z</time>
      </trkpt>
      <trkpt lat="45.05117650" lon="14.60130210">
        <ele>113.00000</ele>
        <time>2010-01-01T00:14:07Z</time>
      </trkpt>
      <trkpt lat="45.05115500" lon="14.60143080">
        <ele>113.00000</ele>
        <time>2010-01-01T00:14:09Z</time>
      </trkpt>
      <trkpt lat="45.05113360" lon="14.60147380">
        <ele>112.00000</ele>
        <time>2010-01-01T00:14:10Z</time>
      </trkpt>
      <trkpt lat="45.05109070" lon="14.60149520">
        <ele>112.00000</ele>
        <time>2010-01-01T00:14:11Z</time>
      </trkpt>
      <trkpt lat="45.05115500" lon="14.60164540">
        <ele>112.00000</ele>
        <time>2010-01-01T00:14:14Z</time>
      </trkpt>
      <trkpt lat="45.05124090" lon="14.60181710">
        <ele>111.00000</ele>
        <time>2010-01-01T00:14:18Z</time>
      </trkpt>
      <trkpt lat="45.05128380" lon="14.60194580">
        <ele>111.00000</ele>
        <time>2010-01-01T00:14:21Z</time>
      </trkpt>
      <trkpt lat="45.05128380" lon="14.60218190">
        <ele>110.00000</ele>
        <time>2010-01-01T00:14:25Z</time>
      </trkpt>
      <trkpt lat="45.05145540" lon="14.60239640">
        <ele>110.00000</ele>
        <time>2010-01-01T00:14:31Z</time>
      </trkpt>
      <trkpt lat="45.05147690" lon="14.60258960">
        <ele>110.00000</ele>
        <time>2010-01-01T00:14:34Z</time>
      </trkpt>
      <trkpt lat="45.05154130" lon="14.60282560">
        <ele>109.00000</ele>
        <time>2010-01-01T00:14:38Z</time>
      </trkpt>
      <trkpt lat="45.05156270" lon="14.60308310">
        <ele>108.00000</ele>
        <time>2010-01-01T00:14:43Z</time>
      </trkpt>
      <trkpt lat="45.05158420" lon="14.60338350">
        <ele>108.00000</ele>
        <time>2010-01-01T00:14:48Z</time>
      </trkpt>
      <trkpt lat="45.05156270" lon="14.60370540">
        <ele>107.00000</ele>
        <time>2010-01-01T00:14:54Z</time>
      </trkpt>
      <trkpt lat="45.05160570" lon="14.60376970">
        <ele>107.00000</ele>
        <time>2010-01-01T00:14:56Z</time>
      </trkpt>
      <trkpt lat="45.05164860" lon="14.60387700">
        <ele>107.00000</ele>
        <time>2010-01-01T00:14:58Z</time>
      </trkpt>
      <trkpt lat="45.05169150" lon="14.60422030">
        <ele>107.00000</ele>
        <time>2010-01-01T00:15:04Z</time>
      </trkpt>
      <trkpt lat="45.05171290" lon="14.60430620">
        <ele>107.00000</ele>
        <time>2010-01-01T00:15:05Z</time>
      </trkpt>
      <trkpt lat="45.05177730" lon="14.60441350">
        <ele>108.00000</ele>
        <time>2010-01-01T00:15:08Z</time>
      </trkpt>
      <trkpt lat="45.05201330" lon="14.60471390">
        <ele>108.00000</ele>
        <time>2010-01-01T00:15:16Z</time>
      </trkpt>
      <trkpt lat="45.05212060" lon="14.60494990">
        <ele>109.00000</ele>
        <time>2010-01-01T00:15:21Z</time>
      </trkpt>
      <trkpt lat="45.05216360" lon="14.60505720">
        <ele>109.00000</ele>
        <time>2010-01-01T00:15:23Z</time>
      </trkpt>
      <trkpt lat="45.05216360" lon="14.60527180">
        <ele>109.00000</ele>
        <time>2010-01-01T00:15:27Z</time>
      </trkpt>
      <trkpt lat="45.05227080" lon="14.60570090">
        <ele>108.00000</ele>
        <time>2010-01-01T00:15:35Z</time>
      </trkpt>
      <trkpt lat="45.05229230" lon="14.60585110">
        <ele>108.00000</ele>
        <time>2010-01-01T00:15:37Z</time>
      </trkpt>
      <trkpt lat="45.05229230" lon="14.60600130">
        <ele>108.00000</ele>
        <time>2010-01-01T00:15:40Z</time>
      </trkpt>
      <trkpt lat="45.05224710" lon="14.60628730">
        <ele>107.00000</ele>
        <time>2010-01-01T00:15:45Z</time>
      </trkpt>
      <trkpt lat="45.05222790" lon="14.60640900">
        <ele>107.00000</ele>
        <time>2010-01-01T00:15:47Z</time>
      </trkpt>
      <trkpt lat="45.05209920" lon="14.60688110">
        <ele>106.00000</ele>
        <time>2010-01-01T00:15:56Z</time>
      </trkpt>
      <trkpt lat="45.05197040" lon="14.60735320">
        <ele>105.00000</ele>
        <time>2010-01-01T00:16:05Z</time>
      </trkpt>
      <trkpt lat="45.05192750" lon="14.60748190">
        <ele>105.00000</ele>
        <time>2010-01-01T00:16:08Z</time>
      </trkpt>
      <trkpt lat="45.05169150" lon="14.60769650">
        <ele>104.00000</ele>
        <time>2010-01-01T00:16:15Z</time>
      </trkpt>
      <trkpt lat="45.05141250" lon="14.60803980">
        <ele>103.00000</ele>
        <time>2010-01-01T00:16:24Z</time>
      </trkpt>
      <trkpt lat="45.05124090" lon="14.60827580">
        <ele>103.00000</ele>
        <time>2010-01-01T00:16:30Z</time>
      </trkpt>
      <trkpt lat="45.05109070" lon="14.60851190">
        <ele>103.00000</ele>
        <time>2010-01-01T00:16:35Z</time>
      </trkpt>
      <trkpt lat="45.05106920" lon="14.60857620">
        <ele>103.00000</ele>
        <time>2010-01-01T00:16:37Z</time>
      </trkpt>
      <trkpt lat="45.05098340" lon="14.60861920">
        <ele>103.00000</ele>
        <time>2010-01-01T00:16:39Z</time>
      </trkpt>
      <trkpt lat="45.05094050" lon="14.60866210">
        <ele>103.00000</ele>
        <time>2010-01-01T00:16:40Z</time>
      </trkpt>
      <trkpt lat="45.05079030" lon="14.60889810">
        <ele>102.00000</ele>
        <time>2010-01-01T00:16:46Z</time>
      </trkpt>
      <trkpt lat="45.05070440" lon="14.60904830">
        <ele>102.00000</ele>
        <time>2010-01-01T00:16:49Z</time>
      </trkpt>
      <trkpt lat="45.05059710" lon="14.60909120">
        <ele>101.00000</ele>
        <time>2010-01-01T00:16:52Z</time>
      </trkpt>
      <trkpt lat="45.05025380" lon="14.60937020">
        <ele>99.000000</ele>
        <time>2010-01-01T00:17:02Z</time>
      </trkpt>
      <trkpt lat="45.05012510" lon="14.60949890">
        <ele>98.000000</ele>
        <time>2010-01-01T00:17:06Z</time>
      </trkpt>
      <trkpt lat="45.04999630" lon="14.60956330">
        <ele>98.000000</ele>
        <time>2010-01-01T00:17:09Z</time>
      </trkpt>
      <trkpt lat="45.04963150" lon="14.60969200">
        <ele>96.000000</ele>
        <time>2010-01-01T00:17:18Z</time>
      </trkpt>
      <trkpt lat="45.04939550" lon="14.60969200">
        <ele>95.000000</ele>
        <time>2010-01-01T00:17:24Z</time>
      </trkpt>
      <trkpt lat="45.04930970" lon="14.60971350">
        <ele>94.000000</ele>
        <time>2010-01-01T00:17:26Z</time>
      </trkpt>
      <trkpt lat="45.04892340" lon="14.60984230">
        <ele>93.000000</ele>
        <time>2010-01-01T00:17:36Z</time>
      </trkpt>
      <trkpt lat="45.04883760" lon="14.60984230">
        <ele>93.000000</ele>
        <time>2010-01-01T00:17:38Z</time>
      </trkpt>
      <trkpt lat="45.04879470" lon="14.60994950">
        <ele>92.000000</ele>
        <time>2010-01-01T00:17:41Z</time>
      </trkpt>
      <trkpt lat="45.04875180" lon="14.61003540">
        <ele>92.000000</ele>
        <time>2010-01-01T00:17:43Z</time>
      </trkpt>
      <trkpt lat="45.04860160" lon="14.61018560">
        <ele>91.000000</ele>
        <time>2010-01-01T00:17:47Z</time>
      </trkpt>
      <trkpt lat="45.04840850" lon="14.61033580">
        <ele>90.000000</ele>
        <time>2010-01-01T00:17:53Z</time>
      </trkpt>
      <trkpt lat="45.04830120" lon="14.61044310">
        <ele>89.000000</ele>
        <time>2010-01-01T00:17:56Z</time>
      </trkpt>
      <trkpt lat="45.04823680" lon="14.61052890">
        <ele>89.000000</ele>
        <time>2010-01-01T00:17:58Z</time>
      </trkpt>
      <trkpt lat="45.04812950" lon="14.61102240">
        <ele>87.000000</ele>
        <time>2010-01-01T00:18:07Z</time>
      </trkpt>
      <trkpt lat="45.04808660" lon="14.61110830">
        <ele>87.000000</ele>
        <time>2010-01-01T00:18:09Z</time>
      </trkpt>
      <trkpt lat="45.04804370" lon="14.61117260">
        <ele>87.000000</ele>
        <time>2010-01-01T00:18:11Z</time>
      </trkpt>
      <trkpt lat="45.04795780" lon="14.61125850">
        <ele>86.000000</ele>
        <time>2010-01-01T00:18:13Z</time>
      </trkpt>
      <trkpt lat="45.04789350" lon="14.61130140">
        <ele>86.000000</ele>
        <time>2010-01-01T00:18:15Z</time>
      </trkpt>
      <trkpt lat="45.04759310" lon="14.61145160">
        <ele>85.000000</ele>
        <time>2010-01-01T00:18:23Z</time>
      </trkpt>
      <trkpt lat="45.04748580" lon="14.61155890">
        <ele>84.000000</ele>
        <time>2010-01-01T00:18:26Z</time>
      </trkpt>
      <trkpt lat="45.04737850" lon="14.61166620">
        <ele>84.000000</ele>
        <time>2010-01-01T00:18:29Z</time>
      </trkpt>
      <trkpt lat="45.04705660" lon="14.61224550">
        <ele>84.000000</ele>
        <time>2010-01-01T00:18:42Z</time>
      </trkpt>
      <trkpt lat="45.04701370" lon="14.61230990">
        <ele>84.000000</ele>
        <time>2010-01-01T00:18:44Z</time>
      </trkpt>
      <trkpt lat="45.04694930" lon="14.61243860">
        <ele>83.000000</ele>
        <time>2010-01-01T00:18:47Z</time>
      </trkpt>
      <trkpt lat="45.04688500" lon="14.61256740">
        <ele>83.000000</ele>
        <time>2010-01-01T00:18:49Z</time>
      </trkpt>
      <trkpt lat="45.04684200" lon="14.61261030">
        <ele>83.000000</ele>
        <time>2010-01-01T00:18:51Z</time>
      </trkpt>
      <trkpt lat="45.04667040" lon="14.61269610">
        <ele>83.000000</ele>
        <time>2010-01-01T00:18:55Z</time>
      </trkpt>
      <trkpt lat="45.04641290" lon="14.61276050">
        <ele>80.000000</ele>
        <time>2010-01-01T00:19:02Z</time>
      </trkpt>
      <trkpt lat="45.04632710" lon="14.61276050">
        <ele>80.000000</ele>
        <time>2010-01-01T00:19:04Z</time>
      </trkpt>
      <trkpt lat="45.04621980" lon="14.61269610">
        <ele>79.000000</ele>
        <time>2010-01-01T00:19:07Z</time>
      </trkpt>
      <trkpt lat="45.04617690" lon="14.61265320">
        <ele>79.000000</ele>
        <time>2010-01-01T00:19:08Z</time>
      </trkpt>
      <trkpt lat="45.04604810" lon="14.61254590">
        <ele>78.000000</ele>
        <time>2010-01-01T00:19:12Z</time>
      </trkpt>
      <trkpt lat="45.04600520" lon="14.61250300">
        <ele>77.000000</ele>
        <time>2010-01-01T00:19:13Z</time>
      </trkpt>
      <trkpt lat="45.04557600" lon="14.61220260">
        <ele>74.000000</ele>
        <time>2010-01-01T00:19:25Z</time>
      </trkpt>
      <trkpt lat="45.04540440" lon="14.61209530">
        <ele>72.000000</ele>
        <time>2010-01-01T00:19:30Z</time>
      </trkpt>
      <trkpt lat="45.04529710" lon="14.61207380">
        <ele>71.000000</ele>
        <time>2010-01-01T00:19:32Z</time>
      </trkpt>
      <trkpt lat="45.04523270" lon="14.61205240">
        <ele>71.000000</ele>
        <time>2010-01-01T00:19:34Z</time>
      </trkpt>
      <trkpt lat="45.04516830" lon="14.61207380">
        <ele>70.000000</ele>
        <time>2010-01-01T00:19:36Z</time>
      </trkpt>
      <trkpt lat="45.04501810" lon="14.61213820">
        <ele>69.000000</ele>
        <time>2010-01-01T00:19:40Z</time>
      </trkpt>
      <trkpt lat="45.04488940" lon="14.61222410">
        <ele>67.000000</ele>
        <time>2010-01-01T00:19:43Z</time>
      </trkpt>
      <trkpt lat="45.04476070" lon="14.61235280">
        <ele>66.000000</ele>
        <time>2010-01-01T00:19:47Z</time>
      </trkpt>
      <trkpt lat="45.04467480" lon="14.61250300">
        <ele>65.000000</ele>
        <time>2010-01-01T00:19:50Z</time>
      </trkpt>
      <trkpt lat="45.04450320" lon="14.61293220">
        <ele>61.000000</ele>
        <time>2010-01-01T00:19:59Z</time>
      </trkpt>
      <trkpt lat="45.04420280" lon="14.61353300">
        <ele>56.000000</ele>
        <time>2010-01-01T00:20:12Z</time>
      </trkpt>
      <trkpt lat="45.04409550" lon="14.61368320">
        <ele>54.000000</ele>
        <time>2010-01-01T00:20:16Z</time>
      </trkpt>
      <trkpt lat="45.04394530" lon="14.61389780">
        <ele>52.000000</ele>
        <time>2010-01-01T00:20:21Z</time>
      </trkpt>
      <trkpt lat="45.04385940" lon="14.61398360">
        <ele>51.000000</ele>
        <time>2010-01-01T00:20:24Z</time>
      </trkpt>
      <trkpt lat="45.04364490" lon="14.61421960">
        <ele>49.000000</ele>
        <time>2010-01-01T00:20:30Z</time>
      </trkpt>
      <trkpt lat="45.04347320" lon="14.61434840">
        <ele>46.000000</ele>
        <time>2010-01-01T00:20:35Z</time>
      </trkpt>
      <trkpt lat="45.04330150" lon="14.61445560">
        <ele>44.000000</ele>
        <time>2010-01-01T00:20:40Z</time>
      </trkpt>
      <trkpt lat="45.04295820" lon="14.61462730">
        <ele>39.000000</ele>
        <time>2010-01-01T00:20:49Z</time>
      </trkpt>
      <trkpt lat="45.04287240" lon="14.61471310">
        <ele>38.000000</ele>
        <time>2010-01-01T00:20:52Z</time>
      </trkpt>
      <trkpt lat="45.04282950" lon="14.61477750">
        <ele>37.000000</ele>
        <time>2010-01-01T00:20:53Z</time>
      </trkpt>
      <trkpt lat="45.04272220" lon="14.61486330">
        <ele>36.000000</ele>
        <time>2010-01-01T00:20:56Z</time>
      </trkpt>
      <trkpt lat="45.04270070" lon="14.61479900">
        <ele>36.000000</ele>
        <time>2010-01-01T00:20:58Z</time>
      </trkpt>
      <trkpt lat="45.04261490" lon="14.61464880">
        <ele>36.000000</ele>
        <time>2010-01-01T00:21:01Z</time>
      </trkpt>
      <trkpt lat="45.04242180" lon="14.61432690">
        <ele>35.000000</ele>
        <time>2010-01-01T00:21:08Z</time>
      </trkpt>
      <trkpt lat="45.04216430" lon="14.61381190">
        <ele>34.000000</ele>
        <time>2010-01-01T00:21:19Z</time>
      </trkpt>
      <trkpt lat="45.04203550" lon="14.61381190">
        <ele>32.000000</ele>
        <time>2010-01-01T00:21:23Z</time>
      </trkpt>
      <trkpt lat="45.04192820" lon="14.61381190">
        <ele>31.000000</ele>
        <time>2010-01-01T00:21:25Z</time>
      </trkpt>
      <trkpt lat="45.04158490" lon="14.61366170">
        <ele>28.000000</ele>
        <time>2010-01-01T00:21:34Z</time>
      </trkpt>
      <trkpt lat="45.04154200" lon="14.61366170">
        <ele>28.000000</ele>
        <time>2010-01-01T00:21:35Z</time>
      </trkpt>
      <trkpt lat="45.04139180" lon="14.61372610">
        <ele>27.000000</ele>
        <time>2010-01-01T00:21:39Z</time>
      </trkpt>
      <trkpt lat="45.04134890" lon="14.61370460">
        <ele>27.000000</ele>
        <time>2010-01-01T00:21:40Z</time>
      </trkpt>
      <trkpt lat="45.04124160" lon="14.61359730">
        <ele>26.000000</ele>
        <time>2010-01-01T00:21:44Z</time>
      </trkpt>
      <trkpt lat="45.04115580" lon="14.61357590">
        <ele>26.000000</ele>
        <time>2010-01-01T00:21:46Z</time>
      </trkpt>
      <trkpt lat="45.04106990" lon="14.61351150">
        <ele>26.000000</ele>
        <time>2010-01-01T00:21:48Z</time>
      </trkpt>
      <trkpt lat="45.04091970" lon="14.61338280">
        <ele>25.000000</ele>
        <time>2010-01-01T00:21:53Z</time>
      </trkpt>
      <trkpt lat="45.04087680" lon="14.61329690">
        <ele>25.000000</ele>
        <time>2010-01-01T00:21:54Z</time>
      </trkpt>
      <trkpt lat="45.04085540" lon="14.61323260">
        <ele>26.000000</ele>
        <time>2010-01-01T00:21:56Z</time>
      </trkpt>
      <trkpt lat="45.04082390" lon="14.61307540">
        <ele>26.000000</ele>
        <time>2010-01-01T00:21:59Z</time>
      </trkpt>
      <trkpt lat="45.04081240" lon="14.61301800">
        <ele>26.000000</ele>
        <time>2010-01-01T00:22:00Z</time>
      </trkpt>
      <trkpt lat="45.04074810" lon="14.61278200">
        <ele>27.000000</ele>
        <time>2010-01-01T00:22:04Z</time>
      </trkpt>
      <trkpt lat="45.04064080" lon="14.61256740">
        <ele>27.000000</ele>
        <time>2010-01-01T00:22:09Z</time>
      </trkpt>
      <trkpt lat="45.04051200" lon="14.61237430">
        <ele>27.000000</ele>
        <time>2010-01-01T00:22:13Z</time>
      </trkpt>
      <trkpt lat="45.04044770" lon="14.61230990">
        <ele>27.000000</ele>
        <time>2010-01-01T00:22:15Z</time>
      </trkpt>
      <trkpt lat="45.04029750" lon="14.61211680">
        <ele>26.000000</ele>
        <time>2010-01-01T00:22:20Z</time>
      </trkpt>
      <trkpt lat="45.04021160" lon="14.61190220">
        <ele>26.000000</ele>
        <time>2010-01-01T00:22:25Z</time>
      </trkpt>
      <trkpt lat="45.04010430" lon="14.61170910">
        <ele>26.000000</ele>
        <time>2010-01-01T00:22:29Z</time>
      </trkpt>
      <trkpt lat="45.03993270" lon="14.61138720">
        <ele>27.000000</ele>
        <time>2010-01-01T00:22:36Z</time>
      </trkpt>
      <trkpt lat="45.03984680" lon="14.61119410">
        <ele>28.000000</ele>
        <time>2010-01-01T00:22:40Z</time>
      </trkpt>
      <trkpt lat="45.03967520" lon="14.61093660">
        <ele>28.000000</ele>
        <time>2010-01-01T00:22:46Z</time>
      </trkpt>
      <trkpt lat="45.03943920" lon="14.61063620">
        <ele>29.000000</ele>
        <time>2010-01-01T00:22:54Z</time>
      </trkpt>
      <trkpt lat="45.03937480" lon="14.61052890">
        <ele>29.000000</ele>
        <time>2010-01-01T00:22:57Z</time>
      </trkpt>
      <trkpt lat="45.03926750" lon="14.61018560">
        <ele>31.000000</ele>
        <time>2010-01-01T00:23:03Z</time>
      </trkpt>
      <trkpt lat="45.03918170" lon="14.60999250">
        <ele>31.000000</ele>
        <time>2010-01-01T00:23:07Z</time>
      </trkpt>
      <trkpt lat="45.03905290" lon="14.60969200">
        <ele>31.000000</ele>
        <time>2010-01-01T00:23:13Z</time>
      </trkpt>
      <trkpt lat="45.03892420" lon="14.60947750">
        <ele>31.000000</ele>
        <time>2010-01-01T00:23:18Z</time>
      </trkpt>
      <trkpt lat="45.03866670" lon="14.60924140">
        <ele>30.000000</ele>
        <time>2010-01-01T00:23:26Z</time>
      </trkpt>
      <trkpt lat="45.03851650" lon="14.60894100">
        <ele>31.000000</ele>
        <time>2010-01-01T00:23:33Z</time>
      </trkpt>
      <trkpt lat="45.03845210" lon="14.60885520">
        <ele>31.000000</ele>
        <time>2010-01-01T00:23:35Z</time>
      </trkpt>
      <trkpt lat="45.03838770" lon="14.60881230">
        <ele>30.000000</ele>
        <time>2010-01-01T00:23:37Z</time>
      </trkpt>
      <trkpt lat="45.03825900" lon="14.60879080">
        <ele>30.000000</ele>
        <time>2010-01-01T00:23:40Z</time>
      </trkpt>
      <trkpt lat="45.03795860" lon="14.60868350">
        <ele>27.000000</ele>
        <time>2010-01-01T00:23:47Z</time>
      </trkpt>
      <trkpt lat="45.03791570" lon="14.60866210">
        <ele>27.000000</ele>
        <time>2010-01-01T00:23:49Z</time>
      </trkpt>
      <trkpt lat="45.03789420" lon="14.60857620">
        <ele>27.000000</ele>
        <time>2010-01-01T00:23:50Z</time>
      </trkpt>
      <trkpt lat="45.03780840" lon="14.60844750">
        <ele>27.000000</ele>
        <time>2010-01-01T00:23:53Z</time>
      </trkpt>
      <trkpt lat="45.03755090" lon="14.60816860">
        <ele>25.000000</ele>
        <time>2010-01-01T00:24:01Z</time>
      </trkpt>
      <trkpt lat="45.03740070" lon="14.60788960">
        <ele>26.000000</ele>
        <time>2010-01-01T00:24:08Z</time>
      </trkpt>
      <trkpt lat="45.03656380" lon="14.60651630">
        <ele>28.000000</ele>
        <time>2010-01-01T00:24:39Z</time>
      </trkpt>
      <trkpt lat="45.03667110" lon="14.60621590">
        <ele>30.000000</ele>
        <time>2010-01-01T00:24:45Z</time>
      </trkpt>
      <trkpt lat="45.03679990" lon="14.60535760">
        <ele>37.000000</ele>
        <time>2010-01-01T00:25:01Z</time>
      </trkpt>
      <trkpt lat="45.03729340" lon="14.60503570">
        <ele>43.000000</ele>
        <time>2010-01-01T00:25:14Z</time>
      </trkpt>
      <trkpt lat="45.03772250" lon="14.60460660">
        <ele>50.000000</ele>
        <time>2010-01-01T00:25:27Z</time>
      </trkpt>
      <trkpt lat="45.03778690" lon="14.60437050">
        <ele>52.000000</ele>
        <time>2010-01-01T00:25:32Z</time>
      </trkpt>
      <trkpt lat="45.03819460" lon="14.60387700">
        <ele>59.000000</ele>
        <time>2010-01-01T00:25:45Z</time>
      </trkpt>
      <trkpt lat="45.03843060" lon="14.60372680">
        <ele>62.000000</ele>
        <time>2010-01-01T00:25:52Z</time>
      </trkpt>
      <trkpt lat="45.03845210" lon="14.60304020">
        <ele>67.000000</ele>
        <time>2010-01-01T00:26:04Z</time>
      </trkpt>
      <trkpt lat="45.03845210" lon="14.60239640">
        <ele>71.000000</ele>
        <time>2010-01-01T00:26:15Z</time>
      </trkpt>
      <trkpt lat="45.03819460" lon="14.60209600">
        <ele>72.000000</ele>
        <time>2010-01-01T00:26:23Z</time>
      </trkpt>
      <trkpt lat="45.03757230" lon="14.60153810">
        <ele>72.000000</ele>
        <time>2010-01-01T00:26:42Z</time>
      </trkpt>
      <trkpt lat="45.03729340" lon="14.60070130">
        <ele>71.000000</ele>
        <time>2010-01-01T00:26:58Z</time>
      </trkpt>
      <trkpt lat="45.03697150" lon="14.60014340">
        <ele>68.000000</ele>
        <time>2010-01-01T00:27:11Z</time>
      </trkpt>
      <trkpt lat="45.03662820" lon="14.59939240">
        <ele>69.000000</ele>
        <time>2010-01-01T00:27:26Z</time>
      </trkpt>
      <trkpt lat="45.03645650" lon="14.59857700">
        <ele>73.000000</ele>
        <time>2010-01-01T00:27:41Z</time>
      </trkpt>
      <trkpt lat="45.03646000" lon="14.59856000">
        <ele>73.000000</ele>
        <time>2010-01-01T00:27:42Z</time>
      </trkpt>
      <trkpt lat="45.03633000" lon="14.59839000">
        <ele>72.000000</ele>
        <time>2010-01-01T00:27:46Z</time>
      </trkpt>
      <trkpt lat="45.03626000" lon="14.59815000">
        <ele>73.000000</ele>
        <time>2010-01-01T00:27:50Z</time>
      </trkpt>
      <trkpt lat="45.03625000" lon="14.59816000">
        <ele>73.000000</ele>
        <time>2010-01-01T00:27:51Z</time>
      </trkpt>
      <trkpt lat="45.03712000" lon="14.59765000">
        <ele>85.000000</ele>
        <time>2010-01-01T00:28:14Z</time>
      </trkpt>
      <trkpt lat="45.03728000" lon="14.59744000">
        <ele>87.000000</ele>
        <time>2010-01-01T00:28:20Z</time>
      </trkpt>
      <trkpt lat="45.03756000" lon="14.59733000">
        <ele>90.000000</ele>
        <time>2010-01-01T00:28:27Z</time>
      </trkpt>
      <trkpt lat="45.03768000" lon="14.59719000">
        <ele>92.000000</ele>
        <time>2010-01-01T00:28:31Z</time>
      </trkpt>
      <trkpt lat="45.03773000" lon="14.59701000">
        <ele>93.000000</ele>
        <time>2010-01-01T00:28:34Z</time>
      </trkpt>
      <trkpt lat="45.03767000" lon="14.59687000">
        <ele>93.000000</ele>
        <time>2010-01-01T00:28:37Z</time>
      </trkpt>
      <trkpt lat="45.03767000" lon="14.59686000">
        <ele>93.000000</ele>
        <time>2010-01-01T00:28:37Z</time>
      </trkpt>
      <trkpt lat="45.03739000" lon="14.59648000">
        <ele>91.000000</ele>
        <time>2010-01-01T00:28:47Z</time>
      </trkpt>
      <trkpt lat="45.03680000" lon="14.59545000">
        <ele>88.000000</ele>
        <time>2010-01-01T00:29:10Z</time>
      </trkpt>
      <trkpt lat="45.03641000" lon="14.59454000">
        <ele>84.000000</ele>
        <time>2010-01-01T00:29:29Z</time>
      </trkpt>
      <trkpt lat="45.03608000" lon="14.59407000">
        <ele>81.000000</ele>
        <time>2010-01-01T00:29:41Z</time>
      </trkpt>
      <trkpt lat="45.03604000" lon="14.59385000">
        <ele>80.000000</ele>
        <time>2010-01-01T00:29:45Z</time>
      </trkpt>
      <trkpt lat="45.03629000" lon="14.59334000">
        <ele>80.000000</ele>
        <time>2010-01-01T00:29:55Z</time>
      </trkpt>
      <trkpt lat="45.03644000" lon="14.59334000">
        <ele>82.000000</ele>
        <time>2010-01-01T00:29:59Z</time>
      </trkpt>
      <trkpt lat="45.03675000" lon="14.59363000">
        <ele>86.000000</ele>
        <time>2010-01-01T00:30:08Z</time>
      </trkpt>
      <trkpt lat="45.03713000" lon="14.59383000">
        <ele>90.000000</ele>
        <time>2010-01-01T00:30:19Z</time>
      </trkpt>
      <trkpt lat="45.03723000" lon="14.59380000">
        <ele>91.000000</ele>
        <time>2010-01-01T00:30:21Z</time>
      </trkpt>
      <trkpt lat="45.03731000" lon="14.59371000">
        <ele>91.000000</ele>
        <time>2010-01-01T00:30:24Z</time>
      </trkpt>
      <trkpt lat="45.03733000" lon="14.59352000">
        <ele>90.000000</ele>
        <time>2010-01-01T00:30:27Z</time>
      </trkpt>
      <trkpt lat="45.03720000" lon="14.59304000">
        <ele>88.000000</ele>
        <time>2010-01-01T00:30:36Z</time>
      </trkpt>
      <trkpt lat="45.03717000" lon="14.59249000">
        <ele>85.000000</ele>
        <time>2010-01-01T00:30:46Z</time>
      </trkpt>
      <trkpt lat="45.03745000" lon="14.59237000">
        <ele>88.000000</ele>
        <time>2010-01-01T00:30:53Z</time>
      </trkpt>
      <trkpt lat="45.03790000" lon="14.59240000">
        <ele>93.000000</ele>
        <time>2010-01-01T00:31:04Z</time>
      </trkpt>
      <trkpt lat="45.03804000" lon="14.59220000">
        <ele>95.000000</ele>
        <time>2010-01-01T00:31:09Z</time>
      </trkpt>
      <trkpt lat="45.03813000" lon="14.59165000">
        <ele>97.000000</ele>
        <time>2010-01-01T00:31:19Z</time>
      </trkpt>
      <trkpt lat="45.03805000" lon="14.59133000">
        <ele>95.000000</ele>
        <time>2010-01-01T00:31:25Z</time>
      </trkpt>
      <trkpt lat="45.03789000" lon="14.59114000">
        <ele>93.000000</ele>
        <time>2010-01-01T00:31:30Z</time>
      </trkpt>
      <trkpt lat="45.03779000" lon="14.59087000">
        <ele>92.000000</ele>
        <time>2010-01-01T00:31:36Z</time>
      </trkpt>
      <trkpt lat="45.03784000" lon="14.59015000">
        <ele>91.000000</ele>
        <time>2010-01-01T00:31:48Z</time>
      </trkpt>
      <trkpt lat="45.03801000" lon="14.58909000">
        <ele>91.000000</ele>
        <time>2010-01-01T00:32:07Z</time>
      </trkpt>
      <trkpt lat="45.03801000" lon="14.58895000">
        <ele>91.000000</ele>
        <time>2010-01-01T00:32:10Z</time>
      </trkpt>
      <trkpt lat="45.03801000" lon="14.58894000">
        <ele>91.000000</ele>
        <time>2010-01-01T00:32:10Z</time>
      </trkpt>
      <trkpt lat="45.03800000" lon="14.58878000">
        <ele>91.000000</ele>
        <time>2010-01-01T00:32:13Z</time>
      </trkpt>
      <trkpt lat="45.03761000" lon="14.58832000">
        <ele>88.000000</ele>
        <time>2010-01-01T00:32:26Z</time>
      </trkpt>
      <trkpt lat="45.03761000" lon="14.58831000">
        <ele>88.000000</ele>
        <time>2010-01-01T00:32:26Z</time>
      </trkpt>
      <trkpt lat="45.03713000" lon="14.58773000">
        <ele>82.000000</ele>
        <time>2010-01-01T00:32:41Z</time>
      </trkpt>
      <trkpt lat="45.03654000" lon="14.58622000">
        <ele>70.000000</ele>
        <time>2010-01-01T00:33:12Z</time>
      </trkpt>
      <trkpt lat="45.03647000" lon="14.58576000">
        <ele>67.000000</ele>
        <time>2010-01-01T00:33:20Z</time>
      </trkpt>
      <trkpt lat="45.03582000" lon="14.58472000">
        <ele>69.000000</ele>
        <time>2010-01-01T00:33:44Z</time>
      </trkpt>
      <trkpt lat="45.03479000" lon="14.58373000">
        <ele>66.000000</ele>
        <time>2010-01-01T00:34:15Z</time>
      </trkpt>
      <trkpt lat="45.03368000" lon="14.58229000">
        <ele>67.000000</ele>
        <time>2010-01-01T00:34:53Z</time>
      </trkpt>
      <trkpt lat="45.03336000" lon="14.58226000">
        <ele>65.000000</ele>
        <time>2010-01-01T00:35:01Z</time>
      </trkpt>
      <trkpt lat="45.03308000" lon="14.58220000">
        <ele>64.000000</ele>
        <time>2010-01-01T00:35:08Z</time>
      </trkpt>
      <trkpt lat="45.03267000" lon="14.58189000">
        <ele>62.000000</ele>
        <time>2010-01-01T00:35:19Z</time>
      </trkpt>
      <trkpt lat="45.03160000" lon="14.58187000">
        <ele>56.000000</ele>
        <time>2010-01-01T00:35:46Z</time>
      </trkpt>
      <trkpt lat="45.03117000" lon="14.58149000">
        <ele>53.000000</ele>
        <time>2010-01-01T00:35:59Z</time>
      </trkpt>
      <trkpt lat="45.03072000" lon="14.58119000">
        <ele>49.000000</ele>
        <time>2010-01-01T00:36:11Z</time>
      </trkpt>
      <trkpt lat="45.03046000" lon="14.58105000">
        <ele>47.000000</ele>
        <time>2010-01-01T00:36:18Z</time>
      </trkpt>
      <trkpt lat="45.03038000" lon="14.58099000">
        <ele>46.000000</ele>
        <time>2010-01-01T00:36:20Z</time>
      </trkpt>
      <trkpt lat="45.03022000" lon="14.58077000">
        <ele>44.000000</ele>
        <time>2010-01-01T00:36:26Z</time>
      </trkpt>
      <trkpt lat="45.02964980" lon="14.58040230">
        <ele>36.000000</ele>
        <time>2010-01-01T00:36:41Z</time>
      </trkpt>
    </trkseg>
  </trk>
</gpx>

